Time;durP1;ratioP1;P1;durP2;ratioP2;P2;SDS_P1;SDS_P2;PMS_P1;PMS_P2;Temp;Humidity;BMP_temperature;BMP_pressure;BME280_temperature;BME280_humidity;BME280_pressure;Samples;Min_cycle;Max_cycle;Signal;HPM_P1;HPM_P2
2021/12/28 00:02:03;;;;;;;;;;;19.50;54.60;;;;;;5034654;28;1266;-67
2021/12/28 00:04:28;;;;;;;;;;;19.50;54.60;;;;;;5035801;28;1325;-67
2021/12/28 00:06:53;;;;;;;;;;;19.50;54.70;;;;;;5035813;28;1281;-67
2021/12/28 00:09:19;;;;;;;;;;;19.50;54.70;;;;;;5035779;28;1967;-67
2021/12/28 00:11:44;;;;;;;;;;;19.50;54.70;;;;;;5035539;28;1213;-67
2021/12/28 00:14:10;;;;;;;;;;;19.50;54.70;;;;;;5035300;28;1087;-67
2021/12/28 00:17:59;;;;;;;;;;;19.50;54.80;;;;;;5034372;28;1519;-67
2021/12/28 00:19:21;;;;;;;;;;;19.50;54.80;;;;;;5035552;28;1086;-67
2021/12/28 00:21:46;;;;;;;;;;;19.50;54.80;;;;;;5034163;28;1342;-68
2021/12/28 00:24:11;;;;;;;;;;;19.40;54.80;;;;;;5035331;28;1300;-67
2021/12/28 00:26:37;;;;;;;;;;;19.40;54.90;;;;;;5035158;28;1337;-66
2021/12/28 00:29:02;;;;;;;;;;;19.40;54.90;;;;;;5034822;28;1898;-68
2021/12/28 00:31:28;;;;;;;;;;;19.40;54.90;;;;;;5035233;28;1323;-70
2021/12/28 00:33:57;;;;;;;;;;;19.40;54.90;;;;;;5035401;28;1146;-70
2021/12/28 00:36:22;;;;;;;;;;;19.40;54.90;;;;;;5034072;28;1328;-70
2021/12/28 00:38:48;;;;;;;;;;;19.40;55.00;;;;;;5034061;28;1480;-69
2021/12/28 00:41:13;;;;;;;;;;;19.40;55.00;;;;;;5034747;28;1370;-69
2021/12/28 00:43:39;;;;;;;;;;;19.40;55.00;;;;;;5033698;28;1338;-70
2021/12/28 00:46:04;;;;;;;;;;;19.40;55.00;;;;;;5033839;28;1319;-69
2021/12/28 00:48:30;;;;;;;;;;;19.40;55.00;;;;;;5035157;28;1901;-69
2021/12/28 00:50:55;;;;;;;;;;;19.40;55.00;;;;;;5033681;28;1386;-68
2021/12/28 00:53:21;;;;;;;;;;;19.40;55.00;;;;;;5033511;28;1498;-67
2021/12/28 00:55:46;;;;;;;;;;;19.40;54.90;;;;;;5034765;28;1321;-66
2021/12/28 00:58:11;;;;;;;;;;;19.40;54.90;;;;;;5035224;28;1186;-67
2021/12/28 01:00:37;;;;;;;;;;;19.40;55.00;;;;;;5034644;28;1325;-67
2021/12/28 01:03:03;;;;;;;;;;;19.40;55.00;;;;;;5034882;28;1309;-68
2021/12/28 01:05:29;;;;;;;;;;;19.40;55.00;;;;;;5034657;28;1259;-68
2021/12/28 01:07:55;;;;;;;;;;;19.40;54.90;;;;;;5033653;28;1076;-68
2021/12/28 01:10:22;;;;;;;;;;;19.40;54.90;;;;;;5020179;28;1910;-68
2021/12/28 01:12:49;;;;;;;;;;;19.40;54.90;;;;;;5033408;28;1272;-67
2021/12/28 01:15:15;;;;;;;;;;;19.40;54.90;;;;;;5033283;28;1195;-68
2021/12/28 01:17:40;;;;;;;;;;;19.40;54.90;;;;;;5033370;28;1076;-68
2021/12/28 01:20:06;;;;;;;;;;;19.40;54.90;;;;;;5016564;28;1144;-69
2021/12/28 01:22:32;;;;;;;;;;;19.40;54.90;;;;;;5034390;28;1399;-68
2021/12/28 01:24:57;;;;;;;;;;;19.40;54.90;;;;;;5033886;28;1841;-67
2021/12/28 01:27:23;;;;;;;;;;;19.40;54.90;;;;;;5034411;28;1285;-68
2021/12/28 01:29:48;;;;;;;;;;;19.40;54.90;;;;;;5034071;28;1902;-68
2021/12/28 01:32:14;;;;;;;;;;;19.40;54.90;;;;;;5034191;28;1333;-67
2021/12/28 01:34:39;;;;;;;;;;;19.40;54.90;;;;;;5033940;28;1048;-67
2021/12/28 01:37:05;;;;;;;;;;;19.40;54.90;;;;;;5032952;28;1088;-67
2021/12/28 01:39:30;;;;;;;;;;;19.40;54.90;;;;;;5033920;28;1337;-67
2021/12/28 01:41:55;;;;;;;;;;;19.40;54.90;;;;;;5033822;28;1240;-66
2021/12/28 01:44:22;;;;;;;;;;;19.40;54.90;;;;;;5034006;28;1103;-68
2021/12/28 01:46:47;;;;;;;;;;;19.40;54.90;;;;;;5032880;28;1000;-68
2021/12/28 01:49:13;;;;;;;;;;;19.30;54.90;;;;;;5034011;28;1967;-69
2021/12/28 01:51:38;;;;;;;;;;;19.40;55.00;;;;;;5033763;28;1303;-69
2021/12/28 01:54:04;;;;;;;;;;;19.40;55.00;;;;;;5032131;28;1343;-70
2021/12/28 01:56:30;;;;;;;;;;;19.30;55.50;;;;;;5033794;28;1323;-70
2021/12/28 01:58:56;;;;;;;;;;;19.40;55.00;;;;;;5032636;28;1410;-70
2021/12/28 02:01:22;;;;;;;;;;;19.30;55.00;;;;;;5032325;28;1339;-70
2021/12/28 02:03:47;;;;;;;;;;;19.30;55.00;;;;;;5033468;28;1290;-69
2021/12/28 02:06:12;;;;;;;;;;;19.30;55.00;;;;;;5033545;28;1381;-69
2021/12/28 02:08:38;;;;;;;;;;;19.30;55.00;;;;;;5032081;28;1957;-69
2021/12/28 02:11:03;;;;;;;;;;;19.30;55.00;;;;;;5032166;28;1519;-69
2021/12/28 02:13:29;;;;;;;;;;;19.30;55.00;;;;;;5032162;28;1357;-68
2021/12/28 02:15:56;;;;;;;;;;;19.30;55.10;;;;;;5032078;28;1354;-68
2021/12/28 02:18:22;;;;;;;;;;;19.30;55.10;;;;;;5032277;28;1076;-69
2021/12/28 02:20:47;;;;;;;;;;;19.30;55.10;;;;;;5031899;28;1284;-69
2021/12/28 02:23:13;;;;;;;;;;;19.30;55.10;;;;;;5032875;28;1103;-69
2021/12/28 02:25:38;;;;;;;;;;;19.30;55.10;;;;;;5033284;28;1054;-71
2021/12/28 02:28:05;;;;;;;;;;;19.30;55.10;;;;;;5032209;28;1092;-71
2021/12/28 02:30:30;;;;;;;;;;;19.30;55.10;;;;;;5033005;28;1902;-71
2021/12/28 02:32:55;;;;;;;;;;;19.30;55.10;;;;;;5031613;28;1394;-68
2021/12/28 02:35:22;;;;;;;;;;;19.30;55.10;;;;;;5031763;28;1531;-68
2021/12/28 02:37:48;;;;;;;;;;;19.30;55.00;;;;;;5032969;28;1273;-67
2021/12/28 02:40:15;;;;;;;;;;;19.30;55.00;;;;;;5031586;28;1320;-67
2021/12/28 02:42:40;;;;;;;;;;;19.30;55.00;;;;;;5031808;28;1360;-68
2021/12/28 02:45:09;;;;;;;;;;;19.40;55.00;;;;;;5032904;28;1059;-67
2021/12/28 02:47:38;;;;;;;;;;;19.40;55.00;;;;;;5033059;28;1266;-68
2021/12/28 02:50:05;;;;;;;;;;;19.40;54.90;;;;;;5031555;28;1973;-68
2021/12/28 02:52:34;;;;;;;;;;;19.50;54.90;;;;;;5031424;28;1400;-68
2021/12/28 02:54:59;;;;;;;;;;;19.50;54.70;;;;;;5031035;28;1538;-68
2021/12/28 02:57:24;;;;;;;;;;;19.60;54.60;;;;;;5015102;28;1100;-67
2021/12/28 02:59:50;;;;;;;;;;;19.60;54.40;;;;;;5032880;28;1397;-70
2021/12/28 03:02:16;;;;;;;;;;;19.70;54.30;;;;;;5031403;28;1202;-69
2021/12/28 03:04:41;;;;;;;;;;;19.70;54.20;;;;;;5031406;28;1279;-69
2021/12/28 03:07:07;;;;;;;;;;;19.70;54.10;;;;;;5032652;28;1087;-69
2021/12/28 03:09:32;;;;;;;;;;;19.80;54.00;;;;;;5032696;28;1910;-69
2021/12/28 03:11:58;;;;;;;;;;;19.80;53.90;;;;;;5031439;28;1353;-69
2021/12/28 03:14:23;;;;;;;;;;;19.80;53.80;;;;;;5032391;28;1440;-69
2021/12/28 03:16:49;;;;;;;;;;;19.90;53.80;;;;;;5031408;28;1295;-69
2021/12/28 03:19:15;;;;;;;;;;;19.90;53.70;;;;;;5032783;28;890;-68
2021/12/28 03:21:41;;;;;;;;;;;19.90;53.70;;;;;;5032339;28;1271;-68
2021/12/28 03:24:07;;;;;;;;;;;19.90;53.60;;;;;;5031039;28;1107;-68
2021/12/28 03:26:33;;;;;;;;;;;20.00;53.60;;;;;;5032561;28;1255;-68
2021/12/28 03:28:58;;;;;;;;;;;20.00;53.50;;;;;;5032793;28;1902;-70
2021/12/28 03:31:24;;;;;;;;;;;20.00;53.50;;;;;;5032566;28;1399;-70
2021/12/28 03:33:50;;;;;;;;;;;20.00;53.50;;;;;;5035904;28;1067;-68
2021/12/28 03:36:15;;;;;;;;;;;20.00;53.50;;;;;;5036544;28;1349;-67
2021/12/28 03:38:41;;;;;;;;;;;20.00;53.50;;;;;;5035265;28;1107;-68
2021/12/28 03:41:07;;;;;;;;;;;20.00;53.40;;;;;;5034935;28;1338;-68
2021/12/28 03:43:36;;;;;;;;;;;20.00;53.40;;;;;;5036180;28;1037;-68
2021/12/28 03:46:02;;;;;;;;;;;20.00;53.40;;;;;;5035158;28;1416;-70
2021/12/28 03:48:27;;;;;;;;;;;20.00;53.40;;;;;;5034870;28;1906;-69
2021/12/28 03:50:53;;;;;;;;;;;20.00;53.30;;;;;;5036055;28;1329;-69
2021/12/28 03:53:18;;;;;;;;;;;20.00;53.30;;;;;;5036050;28;1052;-69
2021/12/28 03:55:44;;;;;;;;;;;20.00;53.30;;;;;;5036290;28;1075;-70
2021/12/28 03:58:09;;;;;;;;;;;20.00;53.30;;;;;;5036125;28;1395;-70
2021/12/28 04:00:37;;;;;;;;;;;20.00;53.30;;;;;;5035808;28;1275;-69
2021/12/28 04:03:02;;;;;;;;;;;20.00;53.30;;;;;;5021576;28;1068;-69
2021/12/28 04:05:28;;;;;;;;;;;20.00;53.30;;;;;;5036087;28;1115;-69
2021/12/28 04:07:53;;;;;;;;;;;20.00;53.30;;;;;;5035976;28;1080;-69
2021/12/28 04:10:27;;;;;;;;;;;20.00;53.30;;;;;;5035566;28;1969;-69
2021/12/28 04:12:53;;;;;;;;;;;20.00;53.30;;;;;;5035683;28;988;-70
2021/12/28 04:15:18;;;;;;;;;;;20.00;53.30;;;;;;5034501;28;1279;-70
2021/12/28 04:17:44;;;;;;;;;;;20.00;53.30;;;;;;5035584;28;1119;-69
2021/12/28 04:20:10;;;;;;;;;;;20.00;53.30;;;;;;5035767;28;1099;-69
2021/12/28 04:22:36;;;;;;;;;;;20.00;53.30;;;;;;5034395;28;1238;-69
2021/12/28 04:25:01;;;;;;;;;;;20.00;53.40;;;;;;5033935;28;1155;-69
2021/12/28 04:27:26;;;;;;;;;;;20.00;53.40;;;;;;5035596;28;1119;-70
2021/12/28 04:29:52;;;;;;;;;;;20.00;53.40;;;;;;5035312;28;1898;-69
2021/12/28 04:32:17;;;;;;;;;;;20.00;53.40;;;;;;5035091;28;1217;-69
2021/12/28 04:34:43;;;;;;;;;;;20.00;53.40;;;;;;5035476;28;1060;-69
2021/12/28 04:37:08;;;;;;;;;;;20.00;53.40;;;;;;5034264;28;1135;-69
2021/12/28 04:39:34;;;;;;;;;;;19.90;53.40;;;;;;5035302;28;1127;-69
2021/12/28 04:41:59;;;;;;;;;;;20.00;53.40;;;;;;5035278;28;1257;-69
2021/12/28 04:44:25;;;;;;;;;;;20.00;53.40;;;;;;5034224;28;1127;-68
2021/12/28 04:46:51;;;;;;;;;;;19.90;53.40;;;;;;5035009;28;1161;-70
2021/12/28 04:49:17;;;;;;;;;;;20.00;53.40;;;;;;5033887;28;1975;-69
2021/12/28 04:51:43;;;;;;;;;;;20.00;53.40;;;;;;5034954;28;1298;-69
2021/12/28 04:54:12;;;;;;;;;;;20.00;53.50;;;;;;5034720;28;1158;-69
2021/12/28 04:56:37;;;;;;;;;;;20.00;53.50;;;;;;5034990;28;1087;-69
2021/12/28 04:59:03;;;;;;;;;;;20.00;53.50;;;;;;5035491;28;1059;-68
2021/12/28 05:01:28;;;;;;;;;;;20.00;53.50;;;;;;5033534;28;1299;-69
2021/12/28 05:03:54;;;;;;;;;;;20.00;53.50;;;;;;5034523;28;1104;-69
2021/12/28 05:06:19;;;;;;;;;;;19.90;53.50;;;;;;5034732;28;1063;-69
2021/12/28 05:08:45;;;;;;;;;;;19.90;53.50;;;;;;5033439;28;1894;-70
2021/12/28 05:11:10;;;;;;;;;;;19.90;54.10;;;;;;5034798;28;1201;-69
2021/12/28 05:13:35;;;;;;;;;;;19.90;53.50;;;;;;5034480;28;1107;-69
2021/12/28 05:16:01;;;;;;;;;;;19.90;53.50;;;;;;5034357;28;1444;-69
2021/12/28 05:18:26;;;;;;;;;;;19.90;53.50;;;;;;5034853;28;1117;-69
2021/12/28 05:20:52;;;;;;;;;;;19.90;53.50;;;;;;5034383;28;1335;-69
2021/12/28 05:23:17;;;;;;;;;;;19.90;53.50;;;;;;5034369;28;1147;-69
2021/12/28 05:25:43;;;;;;;;;;;19.90;53.50;;;;;;5034291;28;1147;-69
2021/12/28 05:28:08;;;;;;;;;;;19.90;53.50;;;;;;5034457;28;1063;-68
2021/12/28 05:30:34;;;;;;;;;;;19.90;53.50;;;;;;5033975;28;1969;-69
2021/12/28 05:32:59;;;;;;;;;;;19.90;53.60;;;;;;5033988;28;1083;-69
2021/12/28 05:35:25;;;;;;;;;;;19.90;53.60;;;;;;5032900;28;1367;-69
2021/12/28 05:37:50;;;;;;;;;;;19.90;53.60;;;;;;5034240;28;1061;-70
2021/12/28 05:40:16;;;;;;;;;;;19.90;53.60;;;;;;5016190;28;1607;-69
2021/12/28 05:42:41;;;;;;;;;;;19.90;53.60;;;;;;5034049;28;1150;-69
2021/12/28 05:45:07;;;;;;;;;;;19.90;53.60;;;;;;5033927;28;1151;-69
2021/12/28 05:47:32;;;;;;;;;;;19.90;53.60;;;;;;5032730;28;1092;-68
2021/12/28 05:49:58;;;;;;;;;;;19.90;53.50;;;;;;5032788;28;1910;-70
2021/12/28 05:52:23;;;;;;;;;;;19.90;53.50;;;;;;5033780;28;1219;-68
2021/12/28 05:54:49;;;;;;;;;;;20.00;53.50;;;;;;5033383;28;1174;-70
2021/12/28 05:57:14;;;;;;;;;;;20.00;53.50;;;;;;5032554;28;1143;-69
2021/12/28 05:59:39;;;;;;;;;;;20.00;53.40;;;;;;5032482;28;1131;-69
2021/12/28 06:02:05;;;;;;;;;;;20.10;53.30;;;;;;5020149;28;1238;-70
2021/12/28 06:04:30;;;;;;;;;;;20.10;53.20;;;;;;5031375;28;1405;-70
2021/12/28 06:06:56;;;;;;;;;;;20.10;53.10;;;;;;5033797;28;1111;-69
2021/12/28 06:09:21;;;;;;;;;;;20.10;53.10;;;;;;5033537;28;1910;-69
2021/12/28 06:11:46;;;;;;;;;;;20.20;53.00;;;;;;5033476;28;1274;-69
2021/12/28 06:14:12;;;;;;;;;;;20.20;53.00;;;;;;5012983;28;1108;-69
2021/12/28 06:16:38;;;;;;;;;;;20.20;52.90;;;;;;5025780;28;1341;-69
2021/12/28 06:19:04;;;;;;;;;;;20.20;52.90;;;;;;5033698;28;1123;-69
2021/12/28 06:21:31;;;;;;;;;;;20.20;52.80;;;;;;5031985;28;1302;-69
2021/12/28 06:23:56;;;;;;;;;;;20.20;52.80;;;;;;5033151;28;1393;-69
2021/12/28 06:26:22;;;;;;;;;;;20.20;52.80;;;;;;5033285;28;1075;-70
2021/12/28 06:28:47;;;;;;;;;;;20.20;52.80;;;;;;5033732;28;1944;-68
2021/12/28 06:31:13;;;;;;;;;;;20.30;52.90;;;;;;5032957;28;1267;-69
2021/12/28 06:33:38;;;;;;;;;;;20.20;52.80;;;;;;5032933;28;1127;-69
2021/12/28 06:36:05;;;;;;;;;;;20.20;52.80;;;;;;5033521;28;1505;-68
2021/12/28 06:38:31;;;;;;;;;;;20.20;52.80;;;;;;5031906;28;1123;-68
2021/12/28 06:40:56;;;;;;;;;;;20.20;52.80;;;;;;5032890;28;1180;-68
2021/12/28 06:43:21;;;;;;;;;;;20.20;52.90;;;;;;5032738;28;1084;-68
2021/12/28 06:45:47;;;;;;;;;;;20.20;52.90;;;;;;5032832;28;1094;-67
2021/12/28 06:48:12;;;;;;;;;;;20.20;52.90;;;;;;5033022;28;1143;-67
2021/12/28 06:50:38;;;;;;;;;;;20.20;52.90;;;;;;5032888;28;1906;-68
2021/12/28 06:53:03;;;;;;;;;;;20.20;52.90;;;;;;5032691;28;1139;-67
2021/12/28 06:55:28;;;;;;;;;;;20.20;52.90;;;;;;5032926;28;1162;-66
2021/12/28 06:57:54;;;;;;;;;;;20.20;52.90;;;;;;5032841;28;1166;-66
2021/12/28 07:00:19;;;;;;;;;;;20.20;52.90;;;;;;5032582;28;1224;-68
2021/12/28 07:02:45;;;;;;;;;;;20.20;52.90;;;;;;5019724;28;1277;-68
2021/12/28 07:05:11;;;;;;;;;;;20.20;52.90;;;;;;5032772;28;1068;-70
2021/12/28 07:07:36;;;;;;;;;;;20.20;52.90;;;;;;5030824;28;1084;-70
2021/12/28 07:10:02;;;;;;;;;;;20.20;53.00;;;;;;5031530;28;1910;-68
2021/12/28 07:12:27;;;;;;;;;;;20.20;52.90;;;;;;5032585;28;1197;-68
2021/12/28 07:14:53;;;;;;;;;;;20.20;53.00;;;;;;5021340;28;1280;-68
2021/12/28 07:17:18;;;;;;;;;;;20.20;52.90;;;;;;5028662;28;1068;-70
2021/12/28 07:19:46;;;;;;;;;;;20.10;52.90;;;;;;5031572;28;1127;-68
2021/12/28 07:22:11;;;;;;;;;;;20.20;53.00;;;;;;5032529;28;1255;-69
2021/12/28 07:24:37;;;;;;;;;;;20.20;53.60;;;;;;5031262;28;1139;-70
2021/12/28 07:27:02;;;;;;;;;;;20.10;52.90;;;;;;5032633;28;1162;-68
2021/12/28 07:29:28;;;;;;;;;;;20.20;53.00;;;;;;5032296;28;1894;-68
2021/12/28 07:31:53;;;;;;;;;;;20.20;53.00;;;;;;5032491;28;1345;-69
2021/12/28 07:34:18;;;;;;;;;;;20.10;53.00;;;;;;5032423;28;1060;-69
2021/12/28 07:36:44;;;;;;;;;;;20.10;53.00;;;;;;5032842;28;1198;-69
2021/12/28 07:39:09;;;;;;;;;;;20.10;53.00;;;;;;5032806;28;1363;-69
2021/12/28 07:41:35;;;;;;;;;;;20.10;53.00;;;;;;5032184;28;1264;-69
2021/12/28 07:44:00;;;;;;;;;;;20.10;53.10;;;;;;5032211;28;1083;-69
2021/12/28 07:46:26;;;;;;;;;;;20.10;53.10;;;;;;5031329;28;1096;-69
2021/12/28 07:48:51;;;;;;;;;;;20.10;53.10;;;;;;5031497;28;1914;-69
2021/12/28 07:51:17;;;;;;;;;;;20.10;53.10;;;;;;5032619;28;1369;-70
2021/12/28 07:53:42;;;;;;;;;;;20.10;53.10;;;;;;5032285;28;1517;-69
2021/12/28 07:56:07;;;;;;;;;;;20.10;53.10;;;;;;5032308;28;1119;-70
2021/12/28 07:58:33;;;;;;;;;;;20.10;53.10;;;;;;5032336;28;1127;-70
2021/12/28 08:00:58;;;;;;;;;;;20.00;49.80;;;;;;5032155;28;1322;-70
2021/12/28 08:03:24;;;;;;;;;;;20.00;46.70;;;;;;5032177;28;1082;-69
2021/12/28 08:05:50;;;;;;;;;;;20.00;46.30;;;;;;5032790;28;1095;-68
2021/12/28 08:08:15;;;;;;;;;;;20.00;46.90;;;;;;5032398;28;1063;-68
2021/12/28 08:10:41;;;;;;;;;;;19.90;47.20;;;;;;5030988;28;1898;-68
2021/12/28 08:13:06;;;;;;;;;;;19.90;47.60;;;;;;5031066;28;1119;-68
2021/12/28 08:15:31;;;;;;;;;;;19.90;47.80;;;;;;5032062;28;1079;-68
2021/12/28 08:17:57;;;;;;;;;;;19.90;48.60;;;;;;5032848;28;1122;-68
2021/12/28 08:20:22;;;;;;;;;;;19.90;49.00;;;;;;5035814;28;1289;-68
2021/12/28 08:22:48;;;;;;;;;;;20.00;49.40;;;;;;5035624;28;1102;-69
2021/12/28 08:25:15;;;;;;;;;;;20.10;49.50;;;;;;5035553;28;1056;-68
2021/12/28 08:27:41;;;;;;;;;;;20.30;49.60;;;;;;5034273;28;1076;-69
2021/12/28 08:30:07;;;;;;;;;;;20.40;49.90;;;;;;5034422;28;1910;-69
2021/12/28 08:32:32;;;;;;;;;;;20.50;49.50;;;;;;5035550;28;1259;-69
2021/12/28 08:34:58;;;;;;;;;;;20.70;49.40;;;;;;5032682;28;1826;-68
2021/12/28 08:37:23;;;;;;;;;;;20.80;49.30;;;;;;5028593;28;1932;-68
2021/12/28 08:39:48;;;;;;;;;;;20.90;49.20;;;;;;5034801;28;1310;-68
2021/12/28 08:42:14;;;;;;;;;;;21.00;49.00;;;;;;5035600;28;1306;-68
2021/12/28 08:44:39;;;;;;;;;;;21.10;48.90;;;;;;5035694;28;1831;-68
2021/12/28 08:47:05;;;;;;;;;;;21.20;48.80;;;;;;5034534;28;1248;-68
2021/12/28 08:49:30;;;;;;;;;;;21.30;48.60;;;;;;5034421;28;1910;-68
2021/12/28 08:51:56;;;;;;;;;;;21.40;48.60;;;;;;5018069;28;1593;-68
2021/12/28 08:54:21;;;;;;;;;;;21.50;48.50;;;;;;5035299;28;1051;-68
2021/12/28 08:56:47;;;;;;;;;;;21.50;48.40;;;;;;5032804;28;2233;-68
2021/12/28 08:59:13;;;;;;;;;;;21.60;48.40;;;;;;5035632;28;1108;-68
2021/12/28 09:01:39;;;;;;;;;;;21.70;48.40;;;;;;5035264;28;1231;-69
2021/12/28 09:04:04;;;;;;;;;;;21.70;48.30;;;;;;5032546;28;1458;-68
2021/12/28 09:06:29;;;;;;;;;;;21.70;48.30;;;;;;5031946;28;1477;-69
2021/12/28 09:08:55;;;;;;;;;;;21.70;48.30;;;;;;5034025;28;1906;-69
2021/12/28 09:11:20;;;;;;;;;;;21.70;48.40;;;;;;5034572;28;1302;-69
2021/12/28 09:13:46;;;;;;;;;;;21.70;48.50;;;;;;5034132;28;1099;-69
2021/12/28 09:16:11;;;;;;;;;;;21.80;48.60;;;;;;5034855;28;1078;-69
2021/12/28 09:18:37;;;;;;;;;;;21.70;48.60;;;;;;5033779;28;1124;-69
2021/12/28 09:21:02;;;;;;;;;;;21.70;48.80;;;;;;5034782;28;1373;-69
2021/12/28 09:23:28;;;;;;;;;;;21.70;48.80;;;;;;5033226;28;1410;-69
2021/12/28 09:25:53;;;;;;;;;;;21.70;48.90;;;;;;5034973;28;1287;-69
2021/12/28 09:28:20;;;;;;;;;;;21.70;48.90;;;;;;5035016;28;1150;-69
2021/12/28 09:30:46;;;;;;;;;;;21.70;48.90;;;;;;5034059;28;2021;-69
2021/12/28 09:33:11;;;;;;;;;;;21.70;48.90;;;;;;5034497;28;1374;-69
2021/12/28 09:35:36;;;;;;;;;;;21.70;48.80;;;;;;5033753;28;1354;-69
2021/12/28 09:38:02;;;;;;;;;;;21.70;48.90;;;;;;5034239;28;1111;-70
2021/12/28 09:40:28;;;;;;;;;;;21.70;49.00;;;;;;5032978;28;1305;-68
2021/12/28 09:42:53;;;;;;;;;;;21.60;49.00;;;;;;5033703;28;1102;-68
2021/12/28 09:45:18;;;;;;;;;;;21.60;49.10;;;;;;5032901;28;1395;-69
2021/12/28 09:47:45;;;;;;;;;;;21.60;49.10;;;;;;5016344;28;1273;-69
2021/12/28 09:50:15;;;;;;;;;;;21.60;49.20;;;;;;5034007;28;1955;-68
2021/12/28 09:52:42;;;;;;;;;;;21.60;49.30;;;;;;5032634;28;1053;-69
2021/12/28 09:55:07;;;;;;;;;;;21.50;49.30;;;;;;5032653;28;1167;-68
2021/12/28 09:57:33;;;;;;;;;;;21.50;49.30;;;;;;5033848;28;1159;-69
2021/12/28 09:59:59;;;;;;;;;;;21.50;49.40;;;;;;5033884;28;1312;-68
2021/12/28 10:02:25;;;;;;;;;;;21.40;49.50;;;;;;5031143;28;1339;-68
2021/12/28 10:04:51;;;;;;;;;;;21.40;49.50;;;;;;5032800;28;1067;-68
2021/12/28 10:07:21;;;;;;;;;;;21.40;49.60;;;;;;5032217;28;1227;-67
2021/12/28 10:09:47;;;;;;;;;;;21.40;49.70;;;;;;5032154;28;1953;-68
2021/12/28 10:12:13;;;;;;;;;;;21.40;49.80;;;;;;5032133;28;1207;-68
2021/12/28 10:14:39;;;;;;;;;;;21.30;49.80;;;;;;5032062;28;1294;-68
2021/12/28 10:17:05;;;;;;;;;;;21.30;49.90;;;;;;5015680;28;1332;-68
2021/12/28 10:19:32;;;;;;;;;;;21.30;49.90;;;;;;5033584;28;1323;-68
2021/12/28 10:21:57;;;;;;;;;;;21.30;50.00;;;;;;5031870;28;1276;-67
2021/12/28 10:24:32;;;;;;;;;;;21.30;50.10;;;;;;5031492;28;1095;-68
2021/12/28 10:27:13;;;;;;;;;;;21.20;50.10;;;;;;5032687;28;1228;-67
2021/12/28 10:29:39;;;;;;;;;;;21.20;50.10;;;;;;5032972;28;1961;-68
2021/12/28 10:32:23;;;;;;;;;;;21.20;50.80;;;;;;5032412;28;1377;-68
2021/12/28 10:34:55;;;;;;;;;;;21.10;50.20;;;;;;5033011;28;1466;-68
2021/12/28 10:37:22;;;;;;;;;;;21.10;50.30;;;;;;5032014;28;1119;-67
2021/12/28 10:39:48;;;;;;;;;;;21.10;50.40;;;;;;5031976;28;1333;-68
2021/12/28 10:42:32;;;;;;;;;;;21.10;50.40;;;;;;5030913;28;1724;-66
2021/12/28 10:44:58;;;;;;;;;;;21.10;50.50;;;;;;5032818;28;1268;-66
2021/12/28 10:47:24;;;;;;;;;;;21.10;50.60;;;;;;5031734;28;1276;-67
2021/12/28 10:49:50;;;;;;;;;;;21.00;50.60;;;;;;5031597;28;1910;-67
2021/12/28 10:52:26;;;;;;;;;;;21.00;50.60;;;;;;5032846;28;1266;-68
2021/12/28 10:54:56;;;;;;;;;;;21.00;50.70;;;;;;5032849;28;1079;-67
2021/12/28 10:57:22;;;;;;;;;;;21.00;50.70;;;;;;5031639;28;1303;-67
2021/12/28 10:59:47;;;;;;;;;;;21.00;50.80;;;;;;5032631;28;1290;-68
2021/12/28 11:02:20;;;;;;;;;;;21.10;50.80;;;;;;5019658;28;1455;-67
2021/12/28 11:04:46;;;;;;;;;;;21.10;50.80;;;;;;5020424;28;1063;-67
2021/12/28 11:07:11;;;;;;;;;;;21.00;50.80;;;;;;5031518;28;1409;-69
2021/12/28 11:09:44;;;;;;;;;;;21.10;50.80;;;;;;5024346;28;1967;-65
2021/12/28 11:12:10;;;;;;;;;;;21.10;50.80;;;;;;5026199;28;1203;-68
2021/12/28 11:14:35;;;;;;;;;;;21.10;50.80;;;;;;5030844;28;1220;-67
2021/12/28 11:17:02;;;;;;;;;;;21.10;50.70;;;;;;5031767;28;1261;-69
2021/12/28 11:19:32;;;;;;;;;;;21.10;50.80;;;;;;5030569;28;1149;-68
2021/12/28 11:21:58;;;;;;;;;;;21.10;50.70;;;;;;5013708;28;1280;-69
2021/12/28 11:24:28;;;;;;;;;;;21.10;50.70;;;;;;5031663;28;1179;-70
2021/12/28 11:26:54;;;;;;;;;;;21.10;50.70;;;;;;5029803;28;1080;-69
2021/12/28 11:29:20;;;;;;;;;;;21.20;50.80;;;;;;5032032;28;1910;-70
2021/12/28 11:31:50;;;;;;;;;;;21.10;50.70;;;;;;5030164;28;1291;-69
2021/12/28 11:34:23;;;;;;;;;;;21.10;50.80;;;;;;5031733;28;799;-70
2021/12/28 11:36:52;;;;;;;;;;;21.10;50.80;;;;;;5029855;28;1064;-70
2021/12/28 11:39:18;;;;;;;;;;;21.10;50.80;;;;;;5026961;28;1135;-70
2021/12/28 11:41:44;;;;;;;;;;;21.10;50.80;;;;;;5027881;28;1212;-69
2021/12/28 11:44:10;;;;;;;;;;;21.10;50.90;;;;;;5031228;28;1071;-69
2021/12/28 11:46:35;;;;;;;;;;;21.10;50.90;;;;;;5030355;28;1410;-69
2021/12/28 11:49:01;;;;;;;;;;;21.10;50.90;;;;;;5029818;28;1970;-67
2021/12/28 11:51:26;;;;;;;;;;;21.10;51.00;;;;;;5030184;28;1309;-66
2021/12/28 11:53:52;;;;;;;;;;;21.00;51.00;;;;;;5032248;28;878;-67
2021/12/28 11:56:19;;;;;;;;;;;21.00;51.00;;;;;;5030952;28;1004;-67
2021/12/28 11:58:56;;;;;;;;;;;21.00;51.00;;;;;;5033583;28;1307;-68
2021/12/28 12:01:40;;;;;;;;;;;21.00;51.10;;;;;;5028033;28;1263;-68
2021/12/28 12:04:24;;;;;;;;;;;21.00;51.10;;;;;;5029604;28;1068;-67
2021/12/28 12:06:58;;;;;;;;;;;21.00;51.20;;;;;;5034693;28;1067;-68
2021/12/28 12:09:25;;;;;;;;;;;21.00;51.20;;;;;;5033465;28;2023;-68
2021/12/28 12:12:09;;;;;;;;;;;21.00;51.30;;;;;;5033163;28;1533;-66
2021/12/28 12:14:50;;;;;;;;;;;20.90;51.20;;;;;;5033604;28;1258;-67
2021/12/28 12:17:27;;;;;;;;;;;20.90;51.30;;;;;;5034372;28;1417;-68
2021/12/28 12:19:53;;;;;;;;;;;20.90;51.30;;;;;;5034093;28;1361;-69
2021/12/28 12:22:30;;;;;;;;;;;21.00;51.30;;;;;;5034121;28;1372;-70
2021/12/28 12:24:56;;;;;;;;;;;21.00;51.30;;;;;;5033142;28;1158;-67
2021/12/28 12:27:40;;;;;;;;;;;21.00;51.20;;;;;;5034173;28;1308;-69
2021/12/28 12:30:29;;;;;;;;;;;21.10;51.20;;;;;;5035255;28;1902;-67
2021/12/28 12:33:07;;;;;;;;;;;21.10;51.20;;;;;;5024404;28;1206;-67
2021/12/28 12:35:33;;;;;;;;;;;21.10;51.10;;;;;;5021040;28;1143;-69
2021/12/28 12:37:59;;;;;;;;;;;21.10;51.10;;;;;;5035307;28;1377;-67
2021/12/28 12:40:43;;;;;;;;;;;21.10;51.00;;;;;;5022101;28;1185;-67
2021/12/28 12:43:11;;;;;;;;;;;21.10;50.90;;;;;;5034963;28;1259;-67
2021/12/28 12:45:52;;;;;;;;;;;21.20;50.90;;;;;;5034302;28;1344;-66
2021/12/28 12:48:33;;;;;;;;;;;21.20;50.90;;;;;;5035005;28;1103;-67
2021/12/28 12:51:17;;;;;;;;;;;21.20;50.90;;;;;;5035326;28;1914;-67
2021/12/28 12:53:46;;;;;;;;;;;21.20;50.90;;;;;;5024116;28;1044;-67
2021/12/28 12:56:15;;;;;;;;;;;21.10;50.90;;;;;;5033875;28;1287;-70
2021/12/28 12:58:41;;;;;;;;;;;21.20;51.00;;;;;;5034807;28;1072;-67
2021/12/28 13:01:06;;;;;;;;;;;21.10;51.00;;;;;;5029815;28;1426;-67
2021/12/28 13:03:33;;;;;;;;;;;21.10;51.00;;;;;;5024298;28;1061;-66
2021/12/28 13:06:00;;;;;;;;;;;21.10;51.00;;;;;;5033777;28;1305;-67
2021/12/28 13:08:25;;;;;;;;;;;21.10;51.10;;;;;;5034782;28;1271;-67
2021/12/28 13:10:50;;;;;;;;;;;21.10;51.00;;;;;;5035094;28;1906;-67
2021/12/28 13:13:17;;;;;;;;;;;21.10;51.10;;;;;;5034350;28;1047;-67
2021/12/28 13:15:42;;;;;;;;;;;21.10;51.10;;;;;;5021286;28;1134;-67
2021/12/28 13:18:07;;;;;;;;;;;21.10;51.10;;;;;;5031757;28;1977;-67
2021/12/28 13:20:34;;;;;;;;;;;21.10;51.20;;;;;;5027757;28;1304;-67
2021/12/28 13:23:07;;;;;;;;;;;21.10;51.20;;;;;;5023165;28;1068;-67
2021/12/28 13:25:34;;;;;;;;;;;21.00;51.20;;;;;;5018135;28;1112;-70
2021/12/28 13:28:00;;;;;;;;;;;21.00;51.20;;;;;;5032486;28;1057;-67
2021/12/28 13:30:27;;;;;;;;;;;21.00;51.30;;;;;;5033168;28;1965;-67
2021/12/28 13:32:53;;;;;;;;;;;21.00;51.30;;;;;;5034110;28;1110;-67
2021/12/28 13:35:20;;;;;;;;;;;21.00;51.30;;;;;;5033059;28;1136;-66
2021/12/28 13:37:50;;;;;;;;;;;21.00;51.40;;;;;;5034256;28;1075;-67
2021/12/28 13:40:17;;;;;;;;;;;21.00;51.40;;;;;;5032491;28;1436;-69
2021/12/28 13:42:43;;;;;;;;;;;21.00;51.50;;;;;;5033132;28;1322;-67
2021/12/28 13:45:09;;;;;;;;;;;20.90;51.40;;;;;;5031905;28;1203;-67
2021/12/28 13:47:37;;;;;;;;;;;20.90;51.50;;;;;;5033620;28;1288;-67
2021/12/28 13:50:04;;;;;;;;;;;20.90;51.50;;;;;;5033291;28;1906;-67
2021/12/28 13:52:39;;;;;;;;;;;20.90;51.50;;;;;;5033328;28;1204;-67
2021/12/28 13:55:05;;;;;;;;;;;20.90;51.60;;;;;;5021233;28;1107;-67
2021/12/28 13:57:32;;;;;;;;;;;20.90;51.60;;;;;;5032946;28;1158;-68
2021/12/28 13:59:57;;;;;;;;;;;20.90;51.70;;;;;;5012042;28;1490;-66
2021/12/28 14:02:22;;;;;;;;;;;20.80;51.60;;;;;;5027547;28;1346;-67
2021/12/28 14:04:48;;;;;;;;;;;20.80;51.70;;;;;;5032605;28;1208;-67
2021/12/28 14:07:14;;;;;;;;;;;20.80;51.70;;;;;;5031387;28;1266;-67
2021/12/28 14:09:40;;;;;;;;;;;20.80;51.70;;;;;;5010667;28;1949;-66
2021/12/28 14:12:08;;;;;;;;;;;20.80;51.70;;;;;;5031313;28;1315;-67
2021/12/28 14:14:35;;;;;;;;;;;20.80;51.70;;;;;;5024300;28;1154;-68
2021/12/28 14:17:04;;;;;;;;;;;20.80;51.80;;;;;;5026410;28;1127;-66
2021/12/28 14:19:33;;;;;;;;;;;20.70;51.80;;;;;;5032818;28;1080;-66
2021/12/28 14:21:58;;;;;;;;;;;20.70;51.80;;;;;;5032348;28;1345;-67
2021/12/28 14:24:30;;;;;;;;;;;20.70;51.80;;;;;;5031080;28;1139;-67
2021/12/28 14:26:56;;;;;;;;;;;20.70;51.90;;;;;;5032733;28;1075;-67
2021/12/28 14:29:22;;;;;;;;;;;20.70;51.90;;;;;;5031205;28;1898;-69